Time;durP1;ratioP1;P1;durP2;ratioP2;P2;SDS_P1;SDS_P2;PMS_P1;PMS_P2;Temp;Humidity;BMP_temperature;BMP_pressure;BME280_temperature;BME280_humidity;BME280_pressure;Samples;Min_cycle;Max_cycle;Signal;HPM_P1;HPM_P2
2022/08/12 00:43:15;;;;;;;;;21.75;17.00;;;;;27.67;30.07;101106.22;4956967;28;45187;-45
2022/08/12 00:48:28;;;;;;;;;22.00;18.50;;;;;27.65;30.00;101101.00;4957451;28;45463;-53
2022/08/12 00:50:55;;;;;;;;;20.75;19.00;;;;;27.66;30.02;101100.03;4956965;28;46691;-52
2022/08/12 00:53:21;;;;;;;;;19.75;19.25;;;;;27.66;30.02;101100.03;4957219;28;45247;-54
2022/08/12 00:55:50;;;;;;;;;21.00;17.50;;;;;27.66;30.09;101096.56;4957301;28;45301;-51
2022/08/12 00:58:22;;;;;;;;;18.50;18.25;;;;;27.66;30.09;101094.72;4956848;28;45473;-45
2022/08/12 01:00:48;;;;;;;;;16.00;15.75;;;;;27.65;29.84;101098.34;4957009;28;46261;-45
2022/08/12 01:03:19;;;;;;;;;16.50;15.25;;;;;27.65;29.83;101090.38;4956673;28;45894;-45
2022/08/12 01:11:27;;;;;;;;;23.25;17.75;;;;;27.66;29.83;101093.88;4956469;28;45802;-53
2022/08/12 01:13:54;;;;;;;;;18.00;15.75;;;;;27.65;29.80;101090.38;4956449;28;45408;-46
2022/08/12 01:16:21;;;;;;;;;20.00;16.50;;;;;27.65;29.82;101093.03;4956582;28;45469;-45
2022/08/12 01:18:48;;;;;;;;;15.50;15.50;;;;;27.65;29.82;101093.03;4956939;28;45550;-45
2022/08/12 01:21:25;;;;;;;;;16.00;14.50;;;;;27.65;29.56;101095.69;4956306;28;46072;-45
2022/08/12 01:24:11;;;;;;;;;16.25;14.50;;;;;27.65;29.68;101086.88;4956884;28;45229;-45
2022/08/12 01:26:39;;;;;;;;;16.25;16.25;;;;;27.64;29.61;101091.34;4956802;28;45262;-47
2022/08/12 01:29:05;;;;;;;;;15.25;15.00;;;;;27.65;29.86;101102.84;4956531;28;45317;-44
2022/08/12 01:31:35;;;;;;;;;17.25;15.50;;;;;27.64;29.80;101087.84;4956448;28;46049;-45
2022/08/12 01:34:05;;;;;;;;;17.00;16.00;;;;;27.64;29.79;101094.00;4956193;28;45806;-45
2022/08/12 01:36:56;;;;;;;;;15.00;15.00;;;;;27.64;29.56;101096.66;4956804;28;45771;-44
2022/08/12 01:39:28;;;;;;;;;14.50;13.50;;;;;27.63;29.56;101094.97;4948059;28;45417;-47
2022/08/12 01:42:01;;;;;;;;;15.50;15.00;;;;;27.63;29.44;101092.31;4956768;28;46413;-48
2022/08/12 01:44:27;;;;;;;;;16.00;15.25;;;;;27.63;29.56;101100.28;4956438;28;45388;-45
2022/08/12 01:47:22;;;;;;;;;19.25;15.25;;;;;27.63;29.43;101089.63;4971810;28;45392;-48
2022/08/12 01:50:06;;;;;;;;;18.25;17.00;;;;;27.62;29.32;101095.94;4956642;28;45179;-46
2022/08/12 01:53:04;;;;;;;;;17.00;13.75;;;;;27.62;29.48;101090.59;4956302;28;46448;-54
2022/08/12 01:55:33;;;;;;;;;16.00;15.25;;;;;27.62;29.73;101090.59;4956203;28;45342;-45
2022/08/12 01:58:23;;;;;;;;;12.25;12.25;;;;;27.62;29.55;101091.47;4955980;28;45300;-45
2022/08/12 02:00:57;;;;;;;;;15.50;15.00;;;;;27.62;29.67;101088.81;4956610;28;45206;-46
2022/08/12 02:13:41;;;;;;;;;44.25;26.25;;;;;27.61;29.48;101072.97;4959481;28;45236;-45
2022/08/12 02:16:30;;;;;;;;;19.00;14.25;;;;;27.61;29.45;101072.97;4959158;28;46088;-45
2022/08/12 02:19:09;;;;;;;;;14.50;13.25;;;;;27.59;29.25;101062.44;4959561;28;45897;-45
2022/08/12 02:21:45;;;;;;;;;15.25;13.25;;;;;27.60;29.78;101063.28;4959575;28;45498;-46
2022/08/12 02:24:14;;;;;;;;;15.25;12.25;;;;;27.59;29.41;101064.25;4959402;28;45274;-44
2022/08/12 02:26:43;;;;;;;;;22.25;16.50;;;;;27.59;29.54;101057.09;4959245;28;45268;-45
2022/08/12 02:29:10;;;;;;;;;18.50;17.00;;;;;27.59;29.37;101062.44;4958927;28;45783;-45
2022/08/12 02:31:37;;;;;;;;;15.25;14.25;;;;;27.60;29.58;101063.28;4959292;28;45488;-45
2022/08/12 02:34:02;;;;;;;;;16.50;13.75;;;;;27.59;29.19;101056.28;4959254;28;45578;-45
2022/08/12 02:36:29;;;;;;;;;15.50;13.75;;;;;27.60;29.55;101060.63;4958981;28;45318;-45
2022/08/12 02:38:56;;;;;;;;;13.50;13.50;;;;;27.58;29.37;101066.06;4959344;28;45877;-45
2022/08/12 02:41:25;;;;;;;;;15.00;14.00;;;;;27.60;29.33;101065.94;4959495;28;45329;-45
2022/08/12 02:43:58;;;;;;;;;15.00;14.25;;;;;27.59;29.63;101064.25;4959645;28;45252;-46
2022/08/12 02:46:29;;;;;;;;;12.00;11.75;;;;;27.58;29.51;101062.56;4959136;28;46343;-45
2022/08/12 02:49:09;;;;;;;;;15.25;15.25;;;;;27.60;29.46;101057.97;4957946;28;45688;-45
2022/08/12 02:51:40;;;;;;;;;13.00;13.00;;;;;27.58;29.62;101057.25;4958799;28;45340;-44
2022/08/12 02:54:06;;;;;;;;;14.00;14.00;;;;;27.58;29.55;101049.25;4959053;28;45344;-50
2022/08/12 02:56:41;;;;;;;;;16.00;14.75;;;;;27.58;29.26;101052.75;4958703;28;46786;-45
2022/08/12 02:59:10;;;;;;;;;31.00;19.50;;;;;27.58;29.39;101051.91;4958659;28;45333;-45
2022/08/12 03:01:42;;;;;;;;;13.25;13.25;;;;;27.58;29.34;101049.25;4958922;28;45243;-45
2022/08/12 03:04:13;;;;;;;;;14.75;13.00;;;;;27.59;29.12;101050.94;4958725;28;45266;-48
2022/08/12 03:06:50;;;;;;;;;13.50;13.00;;;;;27.57;29.10;101052.88;4958499;28;46246;-45
2022/08/12 03:09:16;;;;;;;;;14.25;13.25;;;;;27.57;29.69;101059.03;4958487;28;45454;-49
2022/08/12 03:11:58;;;;;;;;;14.25;12.00;;;;;27.56;29.20;101059.19;4958527;28;45365;-48
2022/08/12 03:14:28;;;;;;;;;12.25;12.25;;;;;27.57;29.32;101058.22;4959161;28;45492;-49
2022/08/12 03:17:14;;;;;;;;;15.25;13.50;;;;;27.58;29.60;101057.25;4958511;28;46968;-48
2022/08/12 03:19:44;;;;;;;;;15.00;15.00;;;;;27.55;29.53;101058.34;4958519;28;45468;-44
2022/08/12 03:22:14;;;;;;;;;15.75;15.00;;;;;27.56;29.32;101067.16;4958300;28;45330;-48
2022/08/12 03:24:42;;;;;;;;;14.75;13.00;;;;;27.56;29.36;101061.84;4958645;28;45591;-44
2022/08/12 03:27:10;;;;;;;;;12.75;12.00;;;;;27.56;29.36;101067.16;4957797;28;46818;-46
2022/08/12 03:29:37;;;;;;;;;13.50;13.50;;;;;27.55;29.28;101062.81;4958014;28;45440;-47
2022/08/12 03:32:04;;;;;;;;;12.50;12.00;;;;;27.52;29.16;101066.56;4957897;28;45408;-46
2022/08/12 03:34:34;;;;;;;;;14.75;14.75;;;;;27.50;29.03;101067.69;4958144;28;45373;-45
2022/08/12 03:37:01;;;;;;;;;18.75;14.75;;;;;27.48;29.11;101064.28;4957569;28;46608;-45
2022/08/12 03:42:14;;;;;;;;;15.75;14.25;;;;;27.46;28.91;101069.72;4957665;28;45352;-47
2022/08/12 04:01:56;;;;;;;;;15.50;15.50;;;;;27.30;28.93;101062.97;4957920;28;45759;-46
2022/08/12 04:04:24;;;;;;;;;19.50;18.00;;;;;27.29;29.18;101055.09;4957863;28;45372;-48
2022/08/12 04:06:50;;;;;;;;;14.75;14.50;;;;;27.27;29.24;101051.72;4957744;28;45467;-47
2022/08/12 04:09:19;;;;;;;;;17.00;14.00;;;;;27.25;29.06;101056.34;4957175;28;45397;-49
2022/08/12 04:14:28;;;;;;;;;13.50;13.50;;;;;27.23;29.19;101047.63;4957414;28;45404;-48
2022/08/12 04:16:55;;;;;;;;;17.50;15.00;;;;;27.20;29.28;101046.06;4957919;28;45611;-48
2022/08/12 04:19:23;;;;;;;;;13.00;13.00;;;;;27.17;29.01;101049.78;4957521;28;47181;-47
2022/08/12 04:21:49;;;;;;;;;15.75;14.50;;;;;27.16;28.98;101045.47;4957333;28;45358;-48
2022/08/12 04:24:16;;;;;;;;;15.00;13.75;;;;;27.15;28.80;101049.09;4956408;28;45225;-59
2022/08/12 04:26:42;;;;;;;;;14.00;14.00;;;;;27.13;29.17;101056.34;4957418;28;45566;-58
2022/08/12 04:29:09;;;;;;;;;15.50;14.50;;;;;27.11;29.19;101052.97;4956779;28;46122;-59
2022/08/12 04:31:39;;;;;;;;;15.25;15.25;;;;;27.09;28.89;101062.88;4957173;28;45868;-59
2022/08/12 04:34:06;;;;;;;;;16.00;14.00;;;;;27.07;29.39;101061.31;4956957;28;45390;-50
2022/08/12 04:36:33;;;;;;;;;18.50;14.00;;;;;27.07;28.98;101053.34;4957369;28;45487;-47
2022/08/12 04:39:00;;;;;;;;;16.50;15.00;;;;;27.06;29.26;101059.63;4955402;28;48263;-48
2022/08/12 04:41:26;;;;;;;;;15.50;15.00;;;;;27.04;29.24;101058.88;4957063;28;45444;-49
2022/08/12 04:43:53;;;;;;;;;16.50;14.50;;;;;27.02;29.38;101061.69;4957511;28;45367;-49
2022/08/12 04:46:19;;;;;;;;;15.25;15.00;;;;;27.00;29.07;101056.50;4957046;28;45237;-50
2022/08/12 04:48:48;;;;;;;;;14.50;14.00;;;;;26.98;29.21;101057.56;4956878;28;45661;-48
2022/08/12 04:51:13;;;;;;;;;13.50;13.50;;;;;26.96;29.18;101068.34;4956690;28;45357;-47
2022/08/12 04:53:40;;;;;;;;;15.00;13.25;;;;;26.93;29.19;101063.25;4956938;28;45392;-48
2022/08/12 04:56:06;;;;;;;;;17.75;14.50;;;;;26.91;29.15;101073.16;4956798;28;45549;-48
2022/08/12 04:58:33;;;;;;;;;13.25;12.75;;;;;26.91;29.54;101075.00;4956512;28;46330;-49
2022/08/12 05:00:59;;;;;;;;;13.00;13.00;;;;;26.88;29.30;101062.78;4956544;28;45343;-50
2022/08/12 05:03:25;;;;;;;;;14.75;14.25;;;;;26.88;29.29;101072.56;4957179;28;45198;-52
2022/08/12 05:05:51;;;;;;;;;17.50;15.25;;;;;26.86;29.54;101064.72;4957408;28;45339;-49
2022/08/12 05:08:16;;;;;;;;;17.00;13.25;;;;;26.84;29.25;101070.13;4956239;28;45800;-48
2022/08/12 05:10:45;;;;;;;;;14.50;14.50;;;;;26.84;29.43;101069.31;4956661;28;45206;-53
2022/08/12 05:13:14;;;;;;;;;13.75;12.00;;;;;26.82;29.44;101064.13;4956576;28;45834;-55
2022/08/12 05:15:41;;;;;;;;;14.75;13.25;;;;;26.81;29.35;101067.75;4956891;28;45353;-55
2022/08/12 05:18:06;;;;;;;;;15.00;15.00;;;;;26.82;29.28;101073.91;4956115;28;46109;-49
2022/08/12 05:20:33;;;;;;;;;16.25;14.50;;;;;26.80;29.37;101070.50;4955275;28;45452;-54
2022/08/12 05:23:10;;;;;;;;;11.25;11.00;;;;;26.81;29.56;101069.53;4956341;28;45462;-58
2022/08/12 05:25:36;;;;;;;;;17.00;13.00;;;;;26.80;29.45;101082.00;4956786;28;45505;-53
2022/08/12 05:28:04;;;;;;;;;13.00;12.75;;;;;26.78;29.37;101089.25;4956068;28;46063;-49
2022/08/12 05:30:29;;;;;;;;;15.00;13.75;;;;;26.79;29.50;101090.94;4956369;28;45339;-50
2022/08/12 05:32:56;;;;;;;;;14.75;14.50;;;;;26.79;29.42;101079.47;4956726;28;45340;-48
2022/08/12 05:35:22;;;;;;;;;14.50;14.50;;;;;26.78;29.35;101083.94;4956581;28;45204;-49
2022/08/12 05:37:48;;;;;;;;;14.25;12.75;;;;;26.77;29.41;101082.19;4959594;28;45309;-48
2022/08/12 05:40:13;;;;;;;;;14.00;12.25;;;;;26.77;29.36;101082.19;4959410;28;45409;-47
2022/08/12 05:42:39;;;;;;;;;15.00;12.75;;;;;26.76;29.27;101085.81;4959577;28;46356;-52
2022/08/12 05:45:05;;;;;;;;;13.25;13.25;;;;;26.75;29.88;101084.13;4959677;28;45400;-49
2022/08/12 05:47:31;;;;;;;;;13.25;13.00;;;;;26.74;29.25;101077.13;4959360;28;46040;-54
2022/08/12 05:49:58;;;;;;;;;13.00;12.50;;;;;26.74;29.42;101077.13;4959276;28;45371;-49
2022/08/12 05:52:24;;;;;;;;;25.00;19.25;;;;;26.72;29.47;101081.75;4959804;28;45276;-48
2022/08/12 05:54:50;;;;;;;;;29.75;22.00;;;;;26.72;29.42;101089.72;4959621;28;45511;-47
2022/08/12 05:57:16;;;;;;;;;19.50;16.00;;;;;26.73;29.29;101090.53;4958912;28;46379;-50
2022/08/12 05:59:41;;;;;;;;;18.25;15.50;;;;;26.73;29.70;101087.88;4959285;28;45254;-48
2022/08/12 06:02:08;;;;;;;;;14.25;13.00;;;;;26.71;29.69;101088.03;4959190;28;45211;-46
2022/08/12 06:04:34;;;;;;;;;14.25;14.25;;;;;26.70;29.57;101083.66;4959557;28;45420;-47
2022/08/12 06:07:06;;;;;;;;;14.50;14.25;;;;;26.69;29.84;101089.94;4958937;28;46572;-47
2022/08/12 06:09:32;;;;;;;;;16.50;13.50;;;;;26.68;29.72;101085.59;4959242;28;45376;-48
2022/08/12 06:11:57;;;;;;;;;15.75;13.00;;;;;26.66;29.48;101093.69;4958960;28;45286;-48
2022/08/12 06:14:23;;;;;;;;;14.50;13.75;;;;;26.65;29.68;101088.47;4959542;28;45350;-47
2022/08/12 06:16:50;;;;;;;;;14.00;13.75;;;;;26.66;29.66;101090.19;4958876;28;45530;-47
2022/08/12 06:19:16;;;;;;;;;17.50;16.00;;;;;26.68;29.96;101085.59;4958900;28;45857;-54
2022/08/12 06:21:41;;;;;;;;;13.50;13.50;;;;;26.69;29.62;101084.63;4959151;28;45385;-48
2022/08/12 06:24:07;;;;;;;;;13.25;13.25;;;;;26.69;29.46;101080.13;4958957;28;45408;-50
2022/08/12 06:26:33;;;;;;;;;13.50;12.75;;;;;26.71;29.69;101082.69;4958969;28;45739;-48
2022/08/12 06:28:59;;;;;;;;;12.75;11.75;;;;;26.70;29.42;101075.69;4958684;28;45357;-51
2022/08/12 06:31:25;;;;;;;;;17.25;16.50;;;;;26.70;29.65;101083.66;4959281;28;45325;-51
2022/08/12 06:33:52;;;;;;;;;15.50;15.50;;;;;26.70;29.63;101081.84;4959644;28;45535;-50
2022/08/12 06:36:21;;;;;;;;;14.25;13.25;;;;;26.71;29.79;101077.38;4958405;28;46934;-48
2022/08/12 06:38:47;;;;;;;;;13.50;12.00;;;;;26.72;29.86;101084.41;4958726;28;45814;-47
2022/08/12 06:43:58;;;;;;;;;15.25;14.25;;;;;26.70;29.65;101087.16;4958713;28;45289;-49
2022/08/12 06:46:26;;;;;;;;;15.75;15.00;;;;;26.71;29.29;101088.03;4957377;28;48317;-49
2022/08/12 06:48:57;;;;;;;;;20.00;15.00;;;;;26.71;29.80;101088.03;4958598;28;45755;-48
2022/08/12 06:51:25;;;;;;;;;24.50;16.75;;;;;26.72;29.66;101084.41;4959007;28;45359;-49
2022/08/12 06:53:51;;;;;;;;;15.25;14.75;;;;;26.72;29.77;101088.84;4959352;28;45364;-46
2022/08/12 06:56:16;;;;;;;;;15.50;15.00;;;;;26.73;29.56;101091.41;4958133;28;46316;-46
2022/08/12 06:58:43;;;;;;;;;16.50;14.00;;;;;26.73;29.82;101088.75;4957932;28;45321;-45
2022/08/12 07:01:09;;;;;;;;;15.25;14.50;;;;;26.75;29.49;101086.78;4958527;28;45305;-50
2022/08/12 07:03:35;;;;;;;;;16.25;14.50;;;;;26.77;29.39;101081.38;4958979;28;45524;-47
2022/08/12 07:06:04;;;;;;;;;14.50;12.00;;;;;26.77;29.35;101084.03;4957697;28;47024;-51
2022/08/12 07:08:33;;;;;;;;;14.00;13.00;;;;;26.79;29.44;101085.63;4958501;28;45750;-48
2022/08/12 07:11:02;;;;;;;;;15.00;14.00;;;;;26.80;29.57;101086.47;4958293;28;45433;-52
2022/08/12 07:13:42;;;;;;;;;13.50;13.50;;;;;26.80;29.53;101083.81;4958719;28;45175;-50
2022/08/12 07:16:09;;;;;;;;;13.00;13.00;;;;;26.81;28.97;101083.69;4957929;28;46216;-51
2022/08/12 07:18:34;;;;;;;;;13.00;12.75;;;;;26.81;29.24;101075.72;4958408;28;45432;-51
2022/08/12 07:21:02;;;;;;;;;14.50;13.50;;;;;26.82;29.20;101080.06;4958238;28;45346;-51
2022/08/12 07:23:32;;;;;;;;;16.75;14.00;;;;;26.82;28.79;101076.56;4958603;28;45627;-54
2022/08/12 07:26:00;;;;;;;;;13.00;13.00;;;;;26.83;29.24;101079.13;4957964;28;47005;-49
2022/08/12 07:28:28;;;;;;;;;14.50;13.00;;;;;26.85;28.84;101074.50;4958199;28;45988;-48
2022/08/12 07:30:54;;;;;;;;;13.75;12.75;;;;;26.87;29.21;101071.72;4958718;28;45431;-55
2022/08/12 07:33:22;;;;;;;;;12.00;12.00;;;;;26.89;28.99;101071.59;4958179;28;45603;-52
2022/08/12 07:35:49;;;;;;;;;16.25;14.25;;;;;26.90;28.69;101076.78;4958190;28;46318;-55
2022/08/12 07:38:26;;;;;;;;;14.25;11.50;;;;;26.92;28.70;101074.03;4957891;28;45376;-47
2022/08/12 07:40:54;;;;;;;;;14.00;13.00;;;;;26.93;28.56;101071.22;4958571;28;45365;-53
2022/08/12 07:43:20;;;;;;;;;12.50;12.25;;;;;26.95;28.66;101068.47;4958063;28;45529;-56
2022/08/12 07:45:45;;;;;;;;;13.75;13.00;;;;;26.95;28.66;101069.31;4958220;28;45534;-53
2022/08/12 07:48:11;;;;;;;;;11.50;11.50;;;;;26.96;28.53;101071.00;4957695;28;45240;-54
2022/08/12 07:50:36;;;;;;;;;13.50;12.50;;;;;26.98;28.70;101065.53;4958142;28;45280;-56
2022/08/12 07:53:02;;;;;;;;;14.75;12.75;;;;;26.98;28.56;101068.22;4957895;28;45522;-52
2022/08/12 07:55:27;;;;;;;;;12.75;12.00;;;;;26.99;28.48;101060.13;4957534;28;46237;-46
2022/08/12 07:57:58;;;;;;;;;13.00;11.25;;;;;27.02;28.11;101069.66;4957773;28;45461;-47
2022/08/12 08:00:25;;;;;;;;;14.75;13.50;;;;;27.04;28.81;101062.41;4957253;28;45273;-48
2022/08/12 08:02:53;;;;;;;;;14.00;13.75;;;;;27.07;28.66;101063.97;4957958;28;45291;-47
2022/08/12 08:05:19;;;;;;;;;16.50;12.75;;;;;27.09;28.99;101070.84;4957350;28;47101;-46
2022/08/12 08:07:45;;;;;;;;;17.50;12.00;;;;;27.11;28.54;101068.94;4957634;28;45429;-48
2022/08/12 08:10:12;;;;;;;;;13.25;11.75;;;;;27.12;28.70;101069.78;4957390;28;45330;-51
2022/08/12 08:12:52;;;;;;;;;15.50;11.25;;;;;27.12;28.63;101065.28;4956685;28;45640;-48
2022/08/12 08:15:19;;;;;;;;;14.75;11.75;;;;;27.14;28.61;101066.03;4957133;28;46713;-47
2022/08/12 08:18:01;;;;;;;;;15.50;12.00;;;;;27.15;28.44;101070.38;4957514;28;45444;-48
2022/08/12 08:20:32;;;;;;;;;16.50;14.75;;;;;27.16;28.28;101074.75;4957604;28;45182;-48
2022/08/12 08:23:02;;;;;;;;;17.50;13.00;;;;;27.19;28.49;101075.44;4957391;28;45370;-47
2022/08/12 08:25:31;;;;;;;;;15.00;10.50;;;;;27.21;28.87;101081.47;4957551;28;45550;-49
2022/08/12 08:27:57;;;;;;;;;17.25;12.00;;;;;27.21;28.36;101082.34;4957134;28;45741;-51
2022/08/12 08:30:23;;;;;;;;;12.75;11.00;;;;;27.22;28.29;101088.50;4957867;28;45188;-50
2022/08/12 08:32:48;;;;;;;;;12.50;12.00;;;;;27.23;28.35;101088.38;4957262;28;45830;-48
2022/08/12 09:21:35;;;;;;;;;12.50;11.50;;;;;27.47;28.52;101063.44;5964698;22;46077;-56
2022/08/12 09:24:00;;;;;;;;;11.25;9.25;;;;;27.48;28.25;101064.28;5021643;28;45873;-57
2022/08/12 09:26:27;;;;;;;;;10.00;10.00;;;;;27.49;28.60;101058.84;5022276;28;45400;-57
2022/08/12 09:28:53;;;;;;;;;12.00;10.75;;;;;27.50;28.45;101057.88;5022090;28;45442;-56
2022/08/12 09:31:18;;;;;;;;;13.00;9.25;;;;;27.50;28.46;101057.03;5021695;28;45419;-55
2022/08/12 09:33:43;;;;;;;;;15.75;9.50;;;;;27.51;28.64;101058.69;5022282;28;45792;-56
2022/08/12 09:36:09;;;;;;;;;19.00;11.75;;;;;27.53;28.72;101062.09;5022159;28;45748;-56
2022/08/12 09:38:34;;;;;;;;;21.75;16.50;;;;;27.53;28.83;101056.75;5022287;28;45484;-56
2022/08/12 09:41:00;;;;;;;;;52.75;30.75;;;;;27.54;28.86;101063.78;5021604;28;45708;-56
2022/08/12 09:46:16;;;;;;;;;18.00;12.75;;;;;27.56;29.20;101057.34;5021853;28;45235;-56
2022/08/12 09:48:43;;;;;;;;;16.25;11.75;;;;;27.58;28.88;101057.25;5020955;28;45505;-57
2022/08/12 09:51:11;;;;;;;;;14.00;12.00;;;;;27.59;29.07;101042.97;5021461;28;46601;-57
2022/08/12 09:56:16;;;;;;;;;12.25;10.50;;;;;27.59;28.59;101040.28;5360366;22;46917;-59
2022/08/12 09:58:45;;;;;;;;;17.50;12.00;;;;;27.59;28.45;101051.78;5021942;28;45350;-57
2022/08/12 10:01:11;;;;;;;;;10.00;9.25;;;;;27.60;28.66;101036.66;5020589;28;47295;-55
2022/08/12 10:03:36;;;;;;;;;11.25;8.75;;;;;27.60;28.36;101032.16;5021546;28;45831;-57
2022/08/12 10:06:05;;;;;;;;;10.00;9.00;;;;;27.60;28.76;101034.84;5022675;28;45362;-57
2022/08/12 10:08:32;;;;;;;;;13.00;10.75;;;;;27.59;28.48;101034.97;5023200;28;45628;-57
2022/08/12 10:13:45;;;;;;;;;17.00;11.50;;;;;27.61;28.40;101027.72;5021467;28;45732;-57
2022/08/12 10:16:22;;;;;;;;;18.50;12.75;;;;;27.61;28.36;101025.88;5021643;28;45310;-57
2022/08/12 10:19:02;;;;;;;;;18.00;12.75;;;;;27.61;28.62;101027.72;5027890;28;45361;-58
2022/08/12 10:21:35;;;;;;;;;13.75;10.75;;;;;27.61;28.36;101012.56;5045104;28;45179;-57
2022/08/12 10:24:05;;;;;;;;;9.50;7.25;;;;;27.60;28.69;101015.38;5033217;28;45712;-59
2022/08/12 10:32:00;;;;;;;;;10.00;8.00;;;;;27.64;28.16;101006.13;5020336;28;45748;-63
2022/08/12 10:34:26;;;;;;;;;8.00;8.00;;;;;27.66;28.17;101008.69;5018579;28;45181;-63
2022/08/12 10:36:57;;;;;;;;;12.25;9.75;;;;;27.66;28.14;101012.19;5018332;28;45332;-63
2022/08/12 10:39:24;;;;;;;;;10.50;9.50;;;;;27.65;28.17;101007.81;5018358;28;45473;-62
2022/08/12 10:44:35;;;;;;;;;11.00;9.00;;;;;27.67;28.03;101010.38;5020179;28;45263;-60
2022/08/12 10:47:01;;;;;;;;;9.00;9.00;;;;;27.68;28.00;100999.59;5042592;28;44616;-61
2022/08/12 10:49:33;;;;;;;;;9.00;8.50;;;;;27.68;28.12;100991.59;5034742;28;45331;-58
2022/08/12 10:52:02;;;;;;;;;9.75;8.00;;;;;27.69;27.60;100997.75;5018135;28;46196;-58
2022/08/12 10:54:28;;;;;;;;;8.50;7.00;;;;;27.69;28.07;100989.75;5018300;28;45798;-57
2022/08/12 10:56:56;;;;;;;;;11.25;8.25;;;;;27.70;27.31;100987.00;5016406;28;45417;-57
2022/08/12 10:59:23;;;;;;;;;8.25;8.25;;;;;27.69;27.45;100984.44;5021878;28;45577;-57
2022/08/12 11:01:51;;;;;;;;;8.75;8.00;;;;;27.71;27.31;100986.03;5034592;28;46503;-59
2022/08/12 11:04:17;;;;;;;;;8.00;8.00;;;;;27.72;27.33;100971.75;5021786;28;45243;-59
2022/08/12 11:06:46;;;;;;;;;7.75;7.25;;;;;27.74;27.33;100982.25;5019271;28;45873;-59
2022/08/12 11:09:23;;;;;;;;;8.50;8.25;;;;;27.74;27.47;100971.59;5016951;28;45675;-57
2022/08/12 11:11:49;;;;;;;;;7.00;7.00;;;;;27.75;26.90;100975.94;5041599;28;46280;-60
2022/08/12 11:14:27;;;;;;;;;7.50;7.00;;;;;27.77;27.22;100963.34;5030320;28;45208;-64
2022/08/12 11:16:56;;;;;;;;;7.25;7.25;;;;;27.77;27.39;100958.88;5020824;28;45475;-60
2022/08/12 11:19:26;;;;;;;;;9.50;8.00;;;;;27.81;27.13;100961.28;5045113;28;44713;-56
2022/08/12 11:21:52;;;;;;;;;8.50;8.00;;;;;27.80;27.40;100963.06;5035648;28;45602;-56
2022/08/12 11:24:18;;;;;;;;;8.50;8.50;;;;;27.80;27.13;100960.41;5017961;28;45305;-57
2022/08/12 11:26:43;;;;;;;;;10.50;8.00;;;;;27.81;26.95;100958.59;5017914;28;45410;-57
2022/08/12 11:29:09;;;;;;;;;8.00;8.00;;;;;27.81;27.38;100956.78;5021963;28;45640;-58
2022/08/12 11:31:34;;;;;;;;;7.75;7.75;;;;;27.83;27.00;100951.34;5041642;28;44906;-55
2022/08/12 11:33:59;;;;;;;;;8.00;8.00;;;;;27.83;26.84;100935.34;5016976;28;45391;-64
2022/08/12 11:36:25;;;;;;;;;9.50;8.50;;;;;27.86;27.02;100932.41;5015107;28;45363;-57
2022/08/12 11:38:50;;;;;;;;;9.25;9.00;;;;;27.81;26.90;100927.47;5016982;28;45330;-59
2022/08/12 11:41:18;;;;;;;;;6.75;5.00;;;;;27.88;26.98;100933.13;5016519;28;45348;-61
2022/08/12 11:43:43;;;;;;;;;6.75;6.75;;;;;27.87;26.94;100934.97;5017110;28;45682;-60
2022/08/12 11:46:08;;;;;;;;;7.50;7.25;;;;;27.87;26.72;100940.28;5017504;28;48652;-60
2022/08/12 11:48:38;;;;;;;;;7.75;7.00;;;;;27.86;27.22;100925.28;5017666;28;45202;-59
2022/08/12 11:51:05;;;;;;;;;7.75;7.75;;;;;27.91;26.89;100922.22;5016622;28;46381;-57
2022/08/12 11:53:30;;;;;;;;;6.25;6.25;;;;;27.87;27.11;100920.78;5016879;28;45634;-56
2022/08/12 11:55:56;;;;;;;;;7.00;7.00;;;;;27.90;26.65;100915.19;5016547;28;45431;-56
2022/08/12 11:58:21;;;;;;;;;7.00;6.75;;;;;27.92;26.76;100922.09;5017093;28;45357;-56
2022/08/12 12:00:46;;;;;;;;;8.50;8.50;;;;;27.90;26.74;100915.19;5016549;28;45380;-56
2022/08/12 12:03:12;;;;;;;;;6.00;6.00;;;;;27.93;26.78;100913.13;5016314;28;45298;-56
2022/08/12 12:05:37;;;;;;;;;6.00;6.00;;;;;27.94;26.87;100916.63;5016681;28;53420;-56
2022/08/12 12:08:03;;;;;;;;;11.50;7.50;;;;;27.93;27.14;100914.94;5016085;28;45558;-57
2022/08/12 12:10:28;;;;;;;;;7.00;6.00;;;;;27.94;26.49;100921.97;5016151;28;46644;-56
2022/08/12 12:12:53;;;;;;;;;11.00;7.75;;;;;27.95;26.88;100910.31;5016081;28;45313;-57
2022/08/12 12:15:19;;;;;;;;;11.00;7.75;;;;;27.99;26.70;100914.41;5015718;28;45374;-56
2022/08/12 12:17:44;;;;;;;;;11.50;7.25;;;;;28.00;26.52;100907.28;5016495;28;45268;-55
2022/08/12 12:20:11;;;;;;;;;7.00;7.00;;;;;28.01;26.55;100896.47;5016839;28;46502;-56
2022/08/12 12:22:38;;;;;;;;;20.00;13.00;;;;;28.03;26.47;100896.34;5017067;28;45232;-54
2022/08/12 12:25:04;;;;;;;;;12.00;9.75;;;;;28.03;26.67;100889.19;5015884;28;45256;-56
2022/08/12 12:27:47;;;;;;;;;13.25;7.50;;;;;28.04;26.81;100901.53;5016559;28;45869;-55
2022/08/12 12:30:13;;;;;;;;;8.50;8.50;;;;;28.04;26.88;100896.22;5028410;28;46392;-56
2022/08/12 12:32:38;;;;;;;;;9.50;6.25;;;;;28.03;26.52;100891.88;5042475;28;45082;-56
2022/08/12 12:35:04;;;;;;;;;10.00;6.50;;;;;28.04;26.89;100890.88;5032660;28;48825;-55
2022/08/12 12:37:29;;;;;;;;;8.75;8.25;;;;;28.04;26.54;100892.69;5017186;28;45410;-55
2022/08/12 12:39:56;;;;;;;;;8.00;6.50;;;;;28.04;26.95;100884.69;5016148;28;46075;-56
2022/08/12 12:42:22;;;;;;;;;8.50;6.00;;;;;28.04;26.93;100884.69;5015774;28;45399;-56
2022/08/12 12:44:47;;;;;;;;;7.50;6.00;;;;;28.04;26.99;100888.22;5014445;28;45275;-56
2022/08/12 12:47:15;;;;;;;;;7.50;7.50;;;;;28.03;26.84;100886.53;5015531;28;45646;-56
2022/08/12 12:49:40;;;;;;;;;7.25;7.00;;;;;28.04;26.76;100888.22;5016203;28;46203;-55
2022/08/12 12:52:06;;;;;;;;;8.00;8.00;;;;;28.03;26.66;100883.88;5015724;28;45352;-57
2022/08/12 12:54:31;;;;;;;;;7.00;5.75;;;;;28.03;26.69;100883.88;5016152;28;45368;-57
2022/08/12 12:56:57;;;;;;;;;15.00;10.50;;;;;28.03;26.22;100880.34;5015724;28;45331;-57
2022/08/12 12:59:23;;;;;;;;;29.00;18.25;;;;;28.02;26.31;100860.88;5015647;28;45982;-58
2022/08/12 13:01:49;;;;;;;;;32.25;17.00;;;;;28.05;26.59;100867.75;5015909;28;45377;-56
2022/08/12 13:04:15;;;;;;;;;13.25;9.00;;;;;28.04;26.22;100874.03;5016902;28;45393;-56
2022/08/12 13:06:40;;;;;;;;;11.25;7.25;;;;;28.04;26.07;100874.91;5038224;28;45374;-57
2022/08/12 13:09:06;;;;;;;;;9.75;8.25;;;;;28.07;26.35;100863.94;5025960;28;45450;-59
2022/08/12 13:11:32;;;;;;;;;9.50;8.50;;;;;28.08;26.36;100868.34;5016148;28;45711;-60
2022/08/12 13:13:58;;;;;;;;;7.00;7.00;;;;;28.08;26.44;100860.34;5015762;28;45241;-62
2022/08/12 13:16:28;;;;;;;;;8.00;8.00;;;;;28.09;26.38;100861.22;5027412;28;45594;-57
2022/08/12 13:18:53;;;;;;;;;12.00;8.00;;;;;28.08;25.86;100855.03;5029559;28;46149;-57
2022/08/12 13:21:19;;;;;;;;;11.00;9.25;;;;;28.10;26.20;100851.38;5035770;28;45232;-56
2022/08/12 13:23:46;;;;;;;;;13.00;9.50;;;;;28.11;26.19;100861.06;5033288;28;44830;-57
2022/08/12 13:26:12;;;;;;;;;7.75;7.00;;;;;28.10;26.37;100852.25;5022576;28;45233;-58
2022/08/12 13:28:41;;;;;;;;;9.00;7.50;;;;;28.10;26.15;100862.03;5016788;28;45971;-56
2022/08/12 13:31:07;;;;;;;;;10.75;8.00;;;;;28.11;26.15;100855.72;5015106;28;45988;-56
2022/08/12 13:33:33;;;;;;;;;8.00;6.25;;;;;28.10;26.04;100854.03;5019131;28;45342;-57
2022/08/12 13:36:00;;;;;;;;;12.00;8.50;;;;;28.10;26.14;100856.72;5017179;28;45359;-56
2022/08/12 13:38:43;;;;;;;;;10.50;9.50;;;;;28.11;26.02;100843.28;5026694;28;46737;-57
2022/08/12 13:43:54;;;;;;;;;9.75;9.50;;;;;28.13;26.10;100853.78;5015327;28;45324;-58
2022/08/12 13:46:20;;;;;;;;;9.25;8.25;;;;;28.12;25.99;100850.25;5014648;28;46009;-57
2022/08/12 13:48:45;;;;;;;;;11.00;10.00;;;;;28.13;25.78;100845.78;5014642;28;59146;-57
2022/08/12 13:51:10;;;;;;;;;9.00;8.25;;;;;28.11;25.76;100837.94;5029308;28;51600;-58